createdAt,value
2018-12-30T00:01:18.243Z,101380.23
2018-12-30T00:03:48.785Z,101378.95
2018-12-30T00:06:19.759Z,101376.05
2018-12-30T00:08:50.494Z,101384.17
2018-12-30T00:11:21.049Z,101395.26
2018-12-30T00:13:51.584Z,101403.16
2018-12-30T00:16:22.216Z,101416.73
2018-12-30T00:18:52.771Z,101421.61
2018-12-30T00:21:23.326Z,101421.56
2018-12-30T00:23:53.950Z,101438.03
2018-12-30T00:26:24.540Z,101425.38
2018-12-30T00:28:55.136Z,101446.99
2018-12-30T00:31:25.820Z,101456.59
2018-12-30T00:33:56.429Z,101463.34
2018-12-30T00:36:26.993Z,101466.55
2018-12-30T00:38:57.619Z,101470.39
2018-12-30T00:41:28.179Z,101473.77
2018-12-30T00:43:58.785Z,101485.70
2018-12-30T00:46:29.352Z,101493.56
2018-12-30T00:49:00.023Z,101504.27
2018-12-30T00:51:30.633Z,101510.19
2018-12-30T00:54:01.482Z,101523.50
2018-12-30T00:56:32.287Z,101532.78
2018-12-30T00:59:02.922Z,101546.49
2018-12-30T01:01:33.510Z,101548.92
2018-12-30T01:04:04.149Z,101555.20
2018-12-30T01:06:35.134Z,101560.17
2018-12-30T01:09:07.781Z,101573.67
2018-12-30T01:11:38.306Z,101583.81
2018-12-30T01:14:08.903Z,101594.85
2018-12-30T01:16:39.605Z,101583.03
2018-12-30T01:19:10.266Z,101614.70
2018-12-30T01:21:40.953Z,101612.24
2018-12-30T01:24:11.578Z,101630.98
2018-12-30T01:26:42.160Z,101635.88
2018-12-30T01:29:12.958Z,101641.11
2018-12-30T01:31:43.951Z,101645.21
2018-12-30T01:34:14.555Z,101660.22
2018-12-30T01:36:45.107Z,101646.66
2018-12-30T01:39:15.786Z,101670.94
2018-12-30T01:41:46.828Z,101668.02
2018-12-30T01:44:17.398Z,101677.73
2018-12-30T01:46:48.077Z,101685.95
2018-12-30T01:49:18.683Z,101688.73
2018-12-30T01:51:49.282Z,101707.82
2018-12-30T01:54:19.974Z,101702.77
2018-12-30T01:56:50.524Z,101713.78
2018-12-30T01:59:21.203Z,101725.22
2018-12-30T02:01:51.969Z,101735.94
2018-12-30T02:04:22.593Z,101737.73
2018-12-30T02:06:53.171Z,101753.70
2018-12-30T02:09:23.933Z,101773.31
2018-12-30T02:11:54.511Z,101783.66
2018-12-30T02:14:25.090Z,101796.14
2018-12-30T02:16:56.178Z,101799.06
2018-12-30T02:19:26.818Z,101806.48
2018-12-30T02:21:57.412Z,101802.48
2018-12-30T02:24:28.039Z,101816.91
2018-12-30T02:26:58.544Z,101830.56
2018-12-30T02:29:29.092Z,101823.47
2018-12-30T02:31:59.709Z,101838.58
2018-12-30T02:34:30.265Z,101838.28
2018-12-30T02:37:00.802Z,101852.48
2018-12-30T02:39:32.086Z,101859.73
2018-12-30T02:42:02.688Z,101854.17
2018-12-30T02:44:33.276Z,101857.66
2018-12-30T02:47:04.008Z,101863.13
2018-12-30T02:49:34.865Z,101872.56
2018-12-30T02:52:05.455Z,101882.75
2018-12-30T02:54:36.113Z,101888.38
2018-12-30T02:57:06.617Z,101888.38
2018-12-30T02:59:37.199Z,101901.05
2018-12-30T03:02:07.822Z,101894.94
2018-12-30T03:04:38.424Z,101905.05
2018-12-30T03:07:08.965Z,101908.61
2018-12-30T03:09:39.602Z,101912.06
2018-12-30T03:12:10.165Z,101918.86
2018-12-30T03:14:40.694Z,101928.49
2018-12-30T03:17:11.363Z,101933.19
2018-12-30T03:19:41.881Z,101934.84
2018-12-30T03:22:12.784Z,101926.73
2018-12-30T03:24:43.444Z,101921.70
2018-12-30T03:27:14.006Z,101934.61
2018-12-30T03:29:44.568Z,101939.85
2018-12-30T03:32:15.222Z,101941.92
2018-12-30T03:34:45.784Z,101947.55
2018-12-30T03:37:16.343Z,101956.11
2018-12-30T03:39:46.978Z,101955.42
2018-12-30T03:42:17.575Z,101957.28
2018-12-30T03:44:48.169Z,101948.66
2018-12-30T03:47:18.812Z,101955.52
2018-12-30T03:49:49.366Z,101972.82
2018-12-30T03:52:20.014Z,101965.19
2018-12-30T03:54:50.603Z,101985.45
2018-12-30T03:57:21.196Z,101978.20
2018-12-30T03:59:51.871Z,101973.72
2018-12-30T04:02:22.418Z,101979.00
2018-12-30T04:04:53.032Z,101979.37
2018-12-30T04:07:23.669Z,101986.73
2018-12-30T04:09:54.225Z,101989.97
2018-12-30T04:12:24.899Z,101992.83
2018-12-30T04:14:55.561Z,101994.91
2018-12-30T04:17:26.125Z,101998.32
2018-12-30T04:19:56.727Z,102009.96
2018-12-30T04:22:27.322Z,102007.89
2018-12-30T04:24:57.916Z,102005.50
2018-12-30T04:27:28.443Z,102022.56
2018-12-30T04:29:59.171Z,102029.20
2018-12-30T04:32:29.649Z,102030.69
2018-12-30T04:35:00.185Z,102032.20
2018-12-30T04:37:30.802Z,102039.77
2018-12-30T04:40:01.303Z,102036.93
2018-12-30T04:42:31.815Z,102054.38
2018-12-30T04:45:02.418Z,102055.48
2018-12-30T04:47:33.008Z,102057.01
2018-12-30T04:50:03.540Z,102056.93
2018-12-30T04:52:34.135Z,102061.73
2018-12-30T04:55:04.658Z,102061.05
2018-12-30T04:57:35.189Z,102066.44
2018-12-30T05:00:06.023Z,102077.19
2018-12-30T05:02:36.513Z,102082.81
2018-12-30T05:05:07.133Z,102086.38
2018-12-30T05:07:37.775Z,102101.83
2018-12-30T05:10:08.311Z,102096.50
2018-12-30T05:12:38.852Z,102101.06
2018-12-30T05:15:09.502Z,102097.36
2018-12-30T05:17:40.097Z,102093.48
2018-12-30T05:20:10.581Z,102103.93
2018-12-30T05:22:41.164Z,102102.83
2018-12-30T05:25:11.715Z,102109.80
2018-12-30T05:27:42.287Z,102109.63
2018-12-30T05:30:12.851Z,102105.45
2018-12-30T05:32:43.383Z,102117.92
2018-12-30T05:35:13.932Z,102117.92
2018-12-30T05:37:44.541Z,102114.67
2018-12-30T05:40:15.125Z,102114.67
2018-12-30T05:42:45.668Z,102126.62
2018-12-30T05:45:16.231Z,102128.35
2018-12-30T05:47:46.772Z,102128.59
2018-12-30T05:50:17.328Z,102129.34
2018-12-30T05:52:47.943Z,102128.41
2018-12-30T05:55:18.500Z,102137.09
2018-12-30T05:57:49.041Z,102135.15
2018-12-30T06:00:19.651Z,102150.30
2018-12-30T06:02:50.143Z,102167.61
2018-12-30T06:05:20.674Z,102164.12
2018-12-30T06:07:51.260Z,102157.20
2018-12-30T06:10:21.813Z,102168.92
2018-12-30T06:12:52.352Z,102170.78
2018-12-30T06:15:24.600Z,102168.70
2018-12-30T06:17:55.274Z,102168.70
2018-12-30T06:20:25.804Z,102183.23
2018-12-30T06:22:56.336Z,102177.77
2018-12-30T06:25:26.913Z,102193.69
2018-12-30T06:27:57.426Z,102197.25
2018-12-30T06:30:28.068Z,102215.23
2018-12-30T06:32:59.209Z,102212.25
2018-12-30T06:35:30.340Z,102208.31
2018-12-30T06:38:00.901Z,102216.97
2018-12-30T06:40:31.391Z,102225.55
2018-12-30T06:43:01.861Z,102223.78
2018-12-30T06:45:32.388Z,102234.05
2018-12-30T06:48:02.846Z,102225.99
2018-12-30T06:50:33.336Z,102239.14
2018-12-30T06:53:03.837Z,102251.46
2018-12-30T06:55:34.312Z,102259.73
2018-12-30T06:58:04.799Z,102263.67
2018-12-30T07:00:35.617Z,102260.42
2018-12-30T07:03:06.104Z,102268.30
2018-12-30T07:05:36.591Z,102268.79
2018-12-30T07:08:07.140Z,102275.27
2018-12-30T07:10:37.637Z,102275.41
2018-12-30T07:13:08.130Z,102280.28
2018-12-30T07:15:38.691Z,102290.30
2018-12-30T07:18:09.073Z,102291.37
2018-12-30T07:20:39.547Z,102288.98
2018-12-30T07:23:10.157Z,102293.86
2018-12-30T07:25:40.637Z,102295.56
2018-12-30T07:28:11.146Z,102287.16
2018-12-30T07:30:41.681Z,102301.07
2018-12-30T07:33:12.166Z,102296.88
2018-12-30T07:35:42.647Z,102296.56
2018-12-30T07:38:13.194Z,102293.55
2018-12-30T07:40:43.724Z,102301.31
2018-12-30T07:43:14.231Z,102299.75
2018-12-30T07:45:44.766Z,102298.75
2018-12-30T07:48:15.256Z,102296.81
2018-12-30T07:50:45.739Z,102299.44
2018-12-30T07:53:16.332Z,102298.37
2018-12-30T07:55:46.845Z,102301.63
2018-12-30T07:58:17.323Z,102292.28
2018-12-30T08:00:47.864Z,102303.50
2018-12-30T08:03:18.338Z,102293.67
2018-12-30T08:05:48.833Z,102304.87
2018-12-30T08:08:19.363Z,102303.81
2018-12-30T08:10:49.871Z,102305.88
2018-12-30T08:13:20.313Z,102310.38
2018-12-30T08:15:50.912Z,102314.50
2018-12-30T08:18:21.389Z,102319.52
2018-12-30T08:20:51.810Z,102329.34
2018-12-30T08:23:23.764Z,102323.02
2018-12-30T08:25:54.238Z,102324.22
2018-12-30T08:28:25.102Z,102321.84
2018-12-30T08:30:55.915Z,102318.66
2018-12-30T08:33:26.399Z,102324.23
2018-12-30T08:35:56.866Z,102317.20
2018-12-30T08:38:27.508Z,102319.38
2018-12-30T08:40:57.969Z,102332.98
2018-12-30T08:43:28.403Z,102315.75
2018-12-30T08:45:58.943Z,102320.90
2018-12-30T08:48:29.415Z,102323.22
2018-12-30T08:50:59.937Z,102329.48
2018-12-30T08:53:30.494Z,102332.34
2018-12-30T08:56:00.987Z,102337.75
2018-12-30T08:58:31.471Z,102336.92
2018-12-30T09:01:02.041Z,102330.93
2018-12-30T09:03:32.521Z,102323.60
2018-12-30T09:06:03.032Z,102326.98
2018-12-30T09:08:33.639Z,102330.34
2018-12-30T09:11:04.073Z,102324.98
2018-12-30T09:13:34.545Z,102329.22
2018-12-30T09:16:05.118Z,102324.59
2018-12-30T09:18:35.588Z,102345.13
2018-12-30T09:21:06.046Z,102343.05
2018-12-30T09:23:37.465Z,102345.70
2018-12-30T09:26:08.283Z,102340.93
2018-12-30T09:28:38.789Z,102350.83
2018-12-30T09:31:09.346Z,102354.02
2018-12-30T09:33:39.962Z,102361.16
2018-12-30T09:36:10.460Z,102369.66
2018-12-30T09:38:41.014Z,102367.11
2018-12-30T09:41:11.467Z,102371.44
2018-12-30T09:43:41.938Z,102374.69
2018-12-30T09:46:12.546Z,102363.48
2018-12-30T09:48:43.027Z,102370.09
2018-12-30T09:51:13.499Z,102366.38
2018-12-30T09:53:45.218Z,102370.09
2018-12-30T09:56:15.897Z,102375.83
2018-12-30T09:58:46.410Z,102380.16
2018-12-30T10:01:16.917Z,102389.92
2018-12-30T10:03:47.440Z,102389.30
2018-12-30T10:06:17.926Z,102383.41
2018-12-30T10:08:48.482Z,102387.52
2018-12-30T10:11:18.945Z,102389.40
2018-12-30T10:13:49.362Z,102391.46
2018-12-30T10:16:19.932Z,102384.59
2018-12-30T10:18:51.692Z,102376.60
2018-12-30T10:21:22.258Z,102378.70
2018-12-30T10:23:53.269Z,102384.97
2018-12-30T10:26:23.736Z,102382.17
2018-12-30T10:28:54.203Z,102391.55
2018-12-30T10:31:24.822Z,102387.14
2018-12-30T10:33:55.284Z,102401.91
2018-12-30T10:36:25.785Z,102399.69
2018-12-30T10:38:56.256Z,102406.66
2018-12-30T10:41:26.756Z,102406.58
2018-12-30T10:43:57.072Z,102394.88
2018-12-30T10:46:27.629Z,102416.25
2018-12-30T10:48:58.096Z,102408.73
2018-12-30T10:51:28.558Z,102401.25
2018-12-30T10:54:00.759Z,102390.16
2018-12-30T10:56:31.352Z,102389.48
2018-12-30T10:59:01.812Z,102390.88
2018-12-30T11:01:32.385Z,102404.04
2018-12-30T11:04:02.858Z,102394.86
2018-12-30T11:06:33.282Z,102389.29
2018-12-30T11:09:05.817Z,102385.39
2018-12-30T11:11:36.313Z,102395.13
2018-12-30T11:14:06.844Z,102395.84
2018-12-30T11:16:37.386Z,102402.73
2018-12-30T11:19:07.898Z,102385.77
2018-12-30T11:21:38.400Z,102382.27
2018-12-30T11:24:09.024Z,102392.88
2018-12-30T11:26:39.554Z,102402.79
2018-12-30T11:29:10.048Z,102389.23
2018-12-30T11:31:40.580Z,102396.91
2018-12-30T11:34:11.153Z,102386.16
2018-12-30T11:36:41.696Z,102394.73
2018-12-30T11:39:12.336Z,102390.84
2018-12-30T11:41:42.830Z,102394.27
2018-12-30T11:44:13.325Z,102393.47
2018-12-30T11:46:43.892Z,102388.20
2018-12-30T11:49:14.396Z,102385.69
2018-12-30T11:51:44.879Z,102384.94
2018-12-30T11:54:16.536Z,102398.11
2018-12-30T11:56:47.303Z,102388.73
2018-12-30T11:59:17.863Z,102389.59
2018-12-30T12:01:48.385Z,102384.96
2018-12-30T12:04:18.923Z,102386.63
2018-12-30T12:06:49.485Z,102403.30
2018-12-30T12:09:20.002Z,102399.77
2018-12-30T12:11:50.524Z,102394.27
2018-12-30T12:14:21.009Z,102395.80
2018-12-30T12:16:51.527Z,102407.06
2018-12-30T12:19:22.089Z,102406.12
2018-12-30T12:21:52.588Z,102420.61
2018-12-30T12:24:24.444Z,102412.31
2018-12-30T12:26:55.144Z,102404.34
2018-12-30T12:29:25.738Z,102406.73
2018-12-30T12:31:56.219Z,102421.08
2018-12-30T12:34:26.754Z,102421.31
2018-12-30T18:37:32.608Z,102629.00
2018-12-30T18:40:03.103Z,102630.66
2018-12-30T18:42:33.659Z,102627.00
2018-12-30T18:45:04.278Z,102631.72
2018-12-30T18:47:34.838Z,102635.70
2018-12-30T18:50:05.633Z,102647.41
2018-12-30T18:52:36.160Z,102650.96
2018-12-30T18:55:07.096Z,102651.74
2018-12-30T18:57:37.652Z,102646.88
2018-12-30T19:00:10.611Z,102652.77
2018-12-30T19:02:41.102Z,102651.11
2018-12-30T19:05:11.734Z,102657.91
2018-12-30T19:07:42.294Z,102655.96
2018-12-30T19:10:12.824Z,102646.95
2018-12-30T19:12:43.311Z,102645.30
2018-12-30T19:15:13.882Z,102642.59
2018-12-30T19:17:44.364Z,102636.81
2018-12-30T19:20:14.835Z,102650.08
2018-12-30T19:22:45.407Z,102650.89
2018-12-30T19:25:15.892Z,102651.03
2018-12-30T19:27:47.232Z,102656.81
2018-12-30T19:30:17.719Z,102657.77
2018-12-30T19:32:48.151Z,102656.34
2018-12-30T19:35:18.927Z,102652.73
2018-12-30T19:37:49.675Z,102639.86
2018-12-30T19:40:20.177Z,102646.81
2018-12-30T19:42:50.690Z,102637.68
2018-12-30T19:45:21.201Z,102643.05
2018-12-30T19:47:51.721Z,102639.11
2018-12-30T19:50:22.216Z,102646.59
2018-12-30T19:52:52.772Z,102635.03
2018-12-30T19:55:23.314Z,102638.78
2018-12-30T19:57:53.835Z,102639.25
2018-12-30T20:00:24.430Z,102640.17
2018-12-30T20:02:54.925Z,102644.78
2018-12-30T20:05:25.399Z,102646.09
2018-12-30T20:07:55.956Z,102656.29
2018-12-30T20:10:26.543Z,102654.00
2018-12-30T20:12:57.826Z,102652.46
2018-12-30T20:15:30.462Z,102641.53
2018-12-30T20:18:00.966Z,102634.85
2018-12-30T20:20:31.451Z,102636.39
2018-12-30T20:23:01.987Z,102642.42
2018-12-30T20:25:32.522Z,102645.06
2018-12-30T20:28:02.973Z,102632.91
2018-12-30T20:30:33.525Z,102623.80
2018-12-30T20:33:04.007Z,102630.42
2018-12-30T20:35:34.551Z,102625.17
2018-12-30T20:38:05.105Z,102638.75
2018-12-30T20:40:35.622Z,102644.02
2018-12-30T20:43:07.415Z,102641.59
2018-12-30T20:45:37.944Z,102650.79
2018-12-30T20:48:08.443Z,102643.67
2018-12-30T20:50:38.865Z,102645.77
2018-12-30T20:53:09.339Z,102650.19
2018-12-30T20:55:39.796Z,102640.13
2018-12-30T20:58:10.397Z,102643.08
2018-12-30T21:00:40.910Z,102650.19
2018-12-30T21:03:11.426Z,102642.25
2018-12-30T21:05:41.907Z,102648.00
2018-12-30T21:08:12.437Z,102648.00
2018-12-30T21:10:42.972Z,102647.89
2018-12-30T21:13:13.488Z,102647.50
2018-12-30T21:15:44.009Z,102647.36
2018-12-30T21:18:14.558Z,102653.09
2018-12-30T21:20:44.963Z,102636.56
2018-12-30T21:23:15.758Z,102631.26
2018-12-30T21:25:46.286Z,102636.13
2018-12-30T21:28:16.755Z,102641.49
2018-12-30T21:30:47.294Z,102637.64
2018-12-30T21:33:17.787Z,102642.25
2018-12-30T21:35:48.308Z,102654.52
2018-12-30T21:38:18.812Z,102659.44
2018-12-30T21:40:49.318Z,102657.84
2018-12-30T21:43:19.743Z,102644.98
2018-12-30T21:45:50.280Z,102644.22
2018-12-30T21:48:20.788Z,102647.08
2018-12-30T21:50:53.826Z,102639.02
2018-12-30T21:53:24.731Z,102643.40
2018-12-30T21:55:55.280Z,102643.13
2018-12-30T21:58:25.807Z,102635.07
2018-12-30T22:00:56.358Z,102631.85
2018-12-30T22:03:26.884Z,102640.38
2018-12-30T22:05:57.437Z,102638.53
2018-12-30T22:08:28.069Z,102636.66
2018-12-30T22:10:58.557Z,102630.00
2018-12-30T22:13:29.057Z,102630.09
2018-12-30T22:15:59.615Z,102629.11
2018-12-30T22:18:30.179Z,102628.69
2018-12-30T22:21:00.680Z,102636.44
2018-12-30T22:23:31.228Z,102633.70
2018-12-30T22:26:01.751Z,102630.66
2018-12-30T22:28:32.224Z,102620.80
2018-12-30T22:31:02.758Z,102628.17
2018-12-30T22:33:33.235Z,102626.70
2018-12-30T22:36:03.763Z,102627.09
2018-12-30T22:38:34.278Z,102630.27
2018-12-30T22:41:04.828Z,102634.91
2018-12-30T22:43:35.314Z,102633.31
2018-12-30T22:46:05.838Z,102627.34
2018-12-30T22:48:36.323Z,102638.77
2018-12-30T22:51:06.820Z,102630.36
2018-12-30T22:53:37.389Z,102626.89
2018-12-30T22:56:07.877Z,102620.17
2018-12-30T22:58:38.374Z,102626.79
2018-12-30T23:01:12.203Z,102634.44
2018-12-30T23:03:42.724Z,102635.11
2018-12-30T23:06:15.731Z,102625.97
2018-12-30T23:08:45.487Z,102622.30
2018-12-30T23:11:15.964Z,102625.53
2018-12-30T23:13:46.433Z,102631.72
2018-12-30T23:16:16.970Z,102629.71
2018-12-30T23:18:47.453Z,102622.44
2018-12-30T23:21:17.996Z,102634.07
2018-12-30T23:23:48.519Z,102635.61
2018-12-30T23:26:19.035Z,102638.29
2018-12-30T23:28:49.536Z,102641.70
2018-12-30T23:31:20.068Z,102634.07
2018-12-30T23:33:50.618Z,102635.50
2018-12-30T23:36:21.109Z,102628.01
2018-12-30T23:38:51.695Z,102625.72
2018-12-30T23:41:22.189Z,102627.51
2018-12-30T23:43:52.727Z,102632.61
2018-12-30T23:46:23.258Z,102641.81
2018-12-30T23:48:53.797Z,102632.00
2018-12-30T23:51:24.270Z,102633.20
2018-12-30T23:53:54.804Z,102631.11
2018-12-30T23:56:25.306Z,102624.72
2018-12-30T23:58:55.767Z,102618.54
